createdAt,value
2018-09-21T00:00:23.433Z,19.16
2018-09-21T00:01:23.417Z,19.16
2018-09-21T00:02:23.466Z,19.08
2018-09-21T00:03:23.417Z,19.08
2018-09-21T00:04:23.433Z,18.98
2018-09-21T00:05:23.424Z,18.99
2018-09-21T00:06:23.372Z,18.87
2018-09-21T00:07:23.366Z,18.98
2018-09-21T00:08:23.276Z,19.13
2018-09-21T00:09:23.281Z,19.10
2018-09-21T00:10:23.271Z,19.11
2018-09-21T00:11:23.244Z,19.13
2018-09-21T00:12:23.232Z,19.13
2018-09-21T00:13:23.216Z,19.18
2018-09-21T00:14:23.222Z,19.33
2018-09-21T00:15:23.188Z,19.31
2018-09-21T00:16:23.158Z,19.36
2018-09-21T00:17:23.128Z,19.43
2018-09-21T00:18:23.138Z,19.43
2018-09-21T00:19:23.119Z,19.26
2018-09-21T00:20:23.092Z,19.41
2018-09-21T00:21:23.105Z,19.43
2018-09-21T00:22:23.062Z,19.46
2018-09-21T00:23:23.041Z,19.50
2018-09-21T00:24:23.037Z,19.55
2018-09-21T00:25:23.006Z,19.56
2018-09-21T00:26:23.010Z,19.71
2018-09-21T00:27:22.997Z,19.71
2018-09-21T00:28:22.962Z,19.65
2018-09-21T00:29:22.950Z,19.78
2018-09-21T00:30:22.941Z,19.83
2018-09-21T00:31:22.922Z,19.84
2018-09-21T00:32:22.921Z,19.84
2018-09-21T00:33:22.898Z,19.87
2018-09-21T00:34:22.884Z,19.91
2018-09-21T00:35:22.858Z,19.86
2018-09-21T00:36:22.873Z,19.86
2018-09-21T00:37:22.837Z,19.88
2018-09-21T00:38:22.820Z,19.80
2018-09-21T00:39:22.791Z,19.80
2018-09-21T00:40:22.782Z,19.80
2018-09-21T00:41:22.772Z,19.80
2018-09-21T00:42:22.790Z,19.88
2018-09-21T00:43:22.754Z,19.95
2018-09-21T00:44:22.732Z,19.92
2018-09-21T00:45:22.714Z,19.87
2018-09-21T00:46:22.704Z,19.92
2018-09-21T00:47:22.676Z,19.84
2018-09-21T00:48:22.674Z,19.81
2018-09-21T00:49:22.655Z,19.76
2018-09-21T00:50:22.639Z,19.80
2018-09-21T00:51:22.646Z,19.76
2018-09-21T00:52:22.649Z,19.77
2018-09-21T00:53:22.667Z,19.76
2018-09-21T00:54:22.611Z,19.66
2018-09-21T00:55:22.599Z,19.56
2018-09-21T00:56:22.605Z,19.59
2018-09-21T00:57:22.539Z,19.44
2018-09-21T00:58:22.515Z,19.48
2018-09-21T00:59:22.493Z,19.39
2018-09-21T01:00:22.474Z,19.36
2018-09-21T01:01:22.479Z,19.32
2018-09-21T01:02:22.437Z,19.25
2018-09-21T01:03:22.439Z,19.21
2018-09-21T01:04:22.421Z,19.19
2018-09-21T01:05:22.395Z,19.08
2018-09-21T01:06:22.387Z,18.98
2018-09-21T01:07:22.363Z,18.94
2018-09-21T01:08:22.350Z,18.92
2018-09-21T01:09:22.355Z,18.90
2018-09-21T01:10:22.344Z,18.88
2018-09-21T01:11:22.295Z,18.76
2018-09-21T01:12:22.279Z,18.76
2018-09-21T01:13:22.288Z,18.75
2018-09-21T01:14:22.288Z,18.57
2018-09-21T01:15:22.238Z,18.63
2018-09-21T01:16:22.231Z,18.58
2018-09-21T01:17:22.201Z,18.47
2018-09-21T01:18:22.209Z,18.52
2018-09-21T01:19:22.200Z,18.51
2018-09-21T01:20:22.166Z,18.51
2018-09-21T01:21:22.156Z,18.62
2018-09-21T01:22:22.136Z,18.54
2018-09-21T01:23:22.138Z,18.58
2018-09-21T01:24:22.104Z,18.66
2018-09-21T01:25:22.084Z,18.73
2018-09-21T01:26:22.077Z,18.78
2018-09-21T01:27:22.052Z,18.67
2018-09-21T01:28:22.044Z,18.85
2018-09-21T01:29:22.011Z,18.90
2018-09-21T01:30:22.013Z,18.94
2018-09-21T01:31:21.998Z,19.00
2018-09-21T01:32:21.968Z,18.95
2018-09-21T01:33:21.948Z,18.98
2018-09-21T01:34:21.970Z,18.98
2018-09-21T01:35:21.948Z,18.98
2018-09-21T01:36:21.903Z,19.06
2018-09-21T01:37:21.911Z,19.08
2018-09-21T01:38:21.915Z,19.08
2018-09-21T01:39:21.907Z,19.11
2018-09-21T01:40:21.918Z,19.08
2018-09-21T01:41:21.897Z,19.07
2018-09-21T01:42:21.871Z,19.04
2018-09-21T01:43:21.864Z,19.11
2018-09-21T01:44:21.851Z,19.00
2018-09-21T01:45:21.768Z,19.02
2018-09-21T01:46:21.758Z,19.10
2018-09-21T01:47:21.734Z,19.19
2018-09-21T01:48:21.721Z,19.14
2018-09-21T01:49:21.709Z,19.16
2018-09-21T01:50:21.731Z,19.16
2018-09-21T01:51:21.687Z,19.13
2018-09-21T01:52:21.650Z,19.19
2018-09-21T01:53:21.633Z,19.26
2018-09-21T01:54:21.616Z,19.22
2018-09-21T01:55:21.643Z,19.23
2018-09-21T01:56:21.631Z,19.18
2018-09-21T01:57:21.573Z,19.23
2018-09-21T01:58:21.569Z,19.36
2018-09-21T01:59:21.546Z,19.36
2018-09-21T02:00:21.543Z,19.32
2018-09-21T02:01:21.508Z,19.36
2018-09-21T02:02:21.506Z,19.41
2018-09-21T02:03:21.465Z,19.32
2018-09-21T02:04:21.462Z,19.37
2018-09-21T02:05:21.444Z,19.39
2018-09-21T02:06:21.440Z,19.28
2018-09-21T02:07:21.437Z,19.23
2018-09-21T02:08:21.399Z,19.19
2018-09-21T02:09:21.391Z,19.13
2018-09-21T02:10:21.369Z,19.00
2018-09-21T02:11:21.357Z,18.95
2018-09-21T02:12:21.375Z,19.00
2018-09-21T02:13:21.331Z,19.04
2018-09-21T02:14:21.301Z,19.06
2018-09-21T02:15:21.290Z,19.02
2018-09-21T02:16:21.291Z,19.18
2018-09-21T02:17:21.277Z,19.32
2018-09-21T02:18:21.257Z,19.36
2018-09-21T02:19:21.225Z,19.46
2018-09-21T02:20:21.218Z,19.47
2018-09-21T02:21:21.205Z,19.58
2018-09-21T02:22:21.199Z,19.59
2018-09-21T02:23:21.169Z,19.68
2018-09-21T02:24:21.163Z,19.68
2018-09-21T02:25:21.163Z,19.62
2018-09-21T02:26:21.181Z,19.71
2018-09-21T02:27:21.182Z,19.69
2018-09-21T02:28:21.186Z,19.74
2018-09-21T02:29:21.150Z,19.78
2018-09-21T02:30:21.122Z,19.66
2018-09-21T02:31:21.041Z,19.73
2018-09-21T02:32:21.126Z,19.76
2018-09-21T02:33:21.033Z,19.78
2018-09-21T02:34:21.038Z,19.73
2018-09-21T02:35:20.981Z,19.77
2018-09-21T02:36:20.973Z,19.77
2018-09-21T02:37:20.982Z,19.69
2018-09-21T02:38:20.934Z,19.73
2018-09-21T02:39:20.945Z,19.68
2018-09-21T02:40:20.904Z,19.80
2018-09-21T02:41:20.920Z,19.73
2018-09-21T02:42:20.868Z,19.74
2018-09-21T02:43:20.847Z,19.74
2018-09-21T02:44:20.852Z,19.74
2018-09-21T02:45:29.091Z,19.69
2018-09-21T02:46:20.812Z,19.62
2018-09-21T02:47:20.795Z,19.56
2018-09-21T02:48:20.764Z,19.59
2018-09-21T02:49:20.766Z,19.51
2018-09-21T02:50:20.744Z,19.55
2018-09-21T02:51:20.717Z,19.32
2018-09-21T02:52:20.704Z,19.21
2018-09-21T02:53:20.685Z,19.25
2018-09-21T02:54:20.673Z,19.22
2018-09-21T02:55:20.667Z,19.22
2018-09-21T02:56:20.646Z,19.25
2018-09-21T02:57:20.647Z,19.39
2018-09-21T02:58:20.633Z,19.37
2018-09-21T02:59:20.595Z,19.39
2018-09-21T03:00:20.659Z,19.43
2018-09-21T03:01:20.564Z,19.46
2018-09-21T03:02:20.571Z,19.48
2018-09-21T03:03:20.532Z,19.50
2018-09-21T03:04:30.635Z,19.48
2018-09-21T03:05:20.510Z,19.56
2018-09-21T03:06:20.481Z,19.47
2018-09-21T03:07:20.472Z,19.46
2018-09-21T03:08:20.455Z,19.31
2018-09-21T03:09:20.449Z,19.32
2018-09-21T03:10:20.435Z,19.28
2018-09-21T03:11:20.430Z,19.26
2018-09-21T03:12:20.385Z,19.28
2018-09-21T03:13:20.448Z,19.23
2018-09-21T03:14:20.428Z,19.22
2018-09-21T03:15:20.422Z,19.18
2018-09-21T03:16:20.406Z,19.19
2018-09-21T03:17:20.374Z,19.19
2018-09-21T03:18:20.360Z,19.19
2018-09-21T03:19:20.284Z,19.16
2018-09-21T03:20:20.279Z,19.13
2018-09-21T03:21:20.270Z,19.14
2018-09-21T03:22:30.654Z,19.04
2018-09-21T03:23:20.225Z,18.94
2018-09-21T03:24:20.200Z,18.94
2018-09-21T03:25:20.193Z,18.87
2018-09-21T03:26:20.199Z,18.91
2018-09-21T03:27:20.161Z,18.92
2018-09-21T03:28:20.144Z,19.06
2018-09-21T03:29:20.141Z,19.08
2018-09-21T03:30:20.146Z,18.99
2018-09-21T03:31:20.108Z,18.94
2018-09-21T03:32:20.116Z,19.00
2018-09-21T03:33:20.090Z,18.95
2018-09-21T03:34:20.078Z,18.99
2018-09-21T03:35:20.091Z,18.88
2018-09-21T03:36:20.031Z,18.98
2018-09-21T03:37:20.015Z,18.98
2018-09-21T03:38:20.004Z,18.88
2018-09-21T03:39:20.008Z,18.95
2018-09-21T03:40:19.960Z,19.02
2018-09-21T03:41:30.199Z,19.07
2018-09-21T03:42:19.938Z,19.18
2018-09-21T03:43:19.906Z,19.29
2018-09-21T03:44:19.890Z,19.31
2018-09-21T03:45:19.874Z,19.37
2018-09-21T03:46:19.859Z,19.37
2018-09-21T03:47:19.852Z,19.33
2018-09-21T03:48:19.846Z,19.33
2018-09-21T03:49:19.814Z,19.31
2018-09-21T03:50:19.795Z,19.33
2018-09-21T03:51:19.790Z,19.29
2018-09-21T03:52:19.786Z,19.31
2018-09-21T03:53:19.772Z,19.31
2018-09-21T03:54:19.729Z,19.31
2018-09-21T03:55:19.715Z,19.32
2018-09-21T03:56:19.726Z,19.46
2018-09-21T03:57:19.710Z,19.48
2018-09-21T03:58:19.693Z,19.50
2018-09-21T03:59:19.663Z,19.48
2018-09-21T04:00:19.659Z,19.50
2018-09-21T04:01:19.657Z,19.47
2018-09-21T04:02:19.675Z,19.56
2018-09-21T04:03:19.688Z,19.63
2018-09-21T04:04:19.642Z,19.65
2018-09-21T04:05:19.628Z,19.66
2018-09-21T04:06:19.612Z,19.62
2018-09-21T04:07:19.537Z,19.74
2018-09-21T04:08:19.516Z,19.81
2018-09-21T04:09:19.509Z,19.81
2018-09-21T04:10:19.483Z,19.80
2018-09-21T04:11:19.469Z,19.94
2018-09-21T04:12:19.453Z,19.99
2018-09-21T04:13:19.439Z,19.92
2018-09-21T04:14:19.453Z,19.98
2018-09-21T04:15:19.414Z,20.05
2018-09-21T04:16:19.397Z,20.11
2018-09-21T04:17:19.382Z,20.23
2018-09-21T04:18:19.364Z,20.23
2018-09-21T04:19:19.363Z,20.32
2018-09-21T04:20:19.329Z,20.35
2018-09-21T04:21:19.313Z,20.38
2018-09-21T04:22:19.301Z,20.28
2018-09-21T04:23:19.284Z,20.42
2018-09-21T04:24:19.266Z,20.35
2018-09-21T04:25:19.258Z,20.42
2018-09-21T04:26:19.239Z,20.36
2018-09-21T04:27:19.222Z,20.38
2018-09-21T04:28:19.205Z,20.32
2018-09-21T04:29:19.193Z,20.32
2018-09-21T15:35:31.443Z,17.64
2018-09-21T15:36:31.410Z,17.64
2018-09-21T15:37:31.403Z,17.71
2018-09-21T15:38:31.374Z,17.84
2018-09-21T15:39:31.358Z,17.89
2018-09-21T15:40:31.339Z,17.77
2018-09-21T15:41:31.322Z,17.86
2018-09-21T15:42:31.342Z,17.89
2018-09-21T15:43:31.368Z,17.84
2018-09-21T15:44:31.269Z,17.79
2018-09-21T15:45:31.273Z,17.62
2018-09-21T15:46:31.276Z,17.70
2018-09-21T15:47:31.280Z,17.77
2018-09-21T15:48:31.280Z,17.66
2018-09-21T15:49:31.246Z,17.70
2018-09-21T15:50:31.229Z,17.68
2018-09-21T15:51:31.153Z,17.63
2018-09-21T15:52:31.140Z,17.84
2018-09-21T15:53:31.153Z,17.74
2018-09-21T15:54:31.109Z,17.72
2018-09-21T15:55:31.084Z,17.70
2018-09-21T15:56:31.073Z,17.66
2018-09-21T15:57:31.057Z,17.79
2018-09-21T15:58:31.055Z,17.95
2018-09-21T15:59:31.026Z,17.97
2018-09-21T16:00:31.005Z,17.81
2018-09-21T16:01:30.991Z,17.89
2018-09-21T16:02:30.974Z,17.81
2018-09-21T16:03:31.029Z,17.81
2018-09-21T16:04:30.968Z,17.75
2018-09-21T16:05:30.997Z,17.62
2018-09-21T16:06:30.913Z,17.72
2018-09-21T16:07:30.894Z,17.63
2018-09-21T16:08:30.886Z,17.46
2018-09-21T16:09:30.871Z,17.49
2018-09-21T16:10:30.870Z,17.44
2018-09-21T16:11:30.848Z,17.40
2018-09-21T16:12:30.835Z,17.41
2018-09-21T16:13:30.818Z,17.40
2018-09-21T16:14:30.846Z,17.46
2018-09-21T16:15:30.800Z,17.51
2018-09-21T16:16:30.774Z,17.51
2018-09-21T16:17:30.754Z,17.54
2018-09-21T16:18:30.741Z,17.51
2018-09-21T16:19:30.748Z,17.49
2018-09-21T16:20:30.696Z,17.40
2018-09-21T16:21:30.692Z,17.48
2018-09-21T16:22:30.668Z,17.44
2018-09-21T16:23:30.651Z,17.37
2018-09-21T16:24:30.638Z,17.38
2018-09-21T16:25:30.625Z,17.33
2018-09-21T16:26:30.601Z,17.31
2018-09-21T16:27:30.603Z,17.34
2018-09-21T16:28:30.582Z,17.18
2018-09-21T16:29:30.573Z,17.16
2018-09-21T16:30:30.545Z,17.31
2018-09-21T16:31:30.516Z,17.18
2018-09-21T16:32:30.515Z,17.19
2018-09-21T16:33:30.522Z,17.22
2018-09-21T16:34:30.530Z,17.14
2018-09-21T16:35:30.854Z,17.16
2018-09-21T16:36:30.495Z,17.16
2018-09-21T16:37:30.479Z,17.12
2018-09-21T16:38:30.401Z,17.16
2018-09-21T16:39:30.390Z,17.16
2018-09-21T16:40:30.369Z,17.15
2018-09-21T16:41:30.369Z,17.11
2018-09-21T16:42:30.334Z,16.98
2018-09-21T16:43:30.318Z,17.06
2018-09-21T16:44:30.314Z,17.06
2018-09-21T16:45:30.293Z,16.96
2018-09-21T16:46:30.281Z,17.01
2018-09-21T16:47:30.255Z,16.94
2018-09-21T16:48:30.244Z,16.94
2018-09-21T16:49:30.226Z,16.89
2018-09-21T16:50:30.211Z,16.86
2018-09-21T16:51:30.240Z,16.83
2018-09-21T16:52:30.190Z,16.88
2018-09-21T16:53:30.170Z,16.79
2018-09-21T16:54:30.147Z,16.78
2018-09-21T16:55:30.130Z,16.76
2018-09-21T16:56:30.106Z,16.73
2018-09-21T16:57:30.133Z,16.70
2018-09-21T16:58:30.078Z,16.73
2018-09-21T16:59:30.056Z,16.71
2018-09-21T17:00:30.041Z,16.57
2018-09-21T17:01:30.022Z,16.67
2018-09-21T17:02:30.031Z,16.66
2018-09-21T17:03:29.992Z,16.73
2018-09-21T17:04:30.057Z,16.73
2018-09-21T17:05:29.958Z,16.64
2018-09-21T17:06:29.942Z,16.64
2018-09-21T17:07:29.941Z,16.61
2018-09-21T17:08:29.906Z,16.52
2018-09-21T17:09:29.896Z,16.45
2018-09-21T17:10:29.878Z,16.49
2018-09-21T17:11:29.859Z,16.42
2018-09-21T17:12:29.838Z,16.42
2018-09-21T17:13:29.840Z,16.42
2018-09-21T17:14:29.809Z,16.38
2018-09-21T17:15:29.831Z,16.34
2018-09-21T17:16:29.778Z,16.34
2018-09-21T17:17:29.756Z,16.21
2018-09-21T17:18:29.750Z,16.17
2018-09-21T17:19:29.733Z,16.38
2018-09-21T17:20:29.739Z,16.39
2018-09-21T17:21:29.744Z,16.34
2018-09-21T17:22:29.744Z,16.24
2018-09-21T17:23:29.722Z,16.21
2018-09-21T17:24:29.692Z,16.15
2018-09-21T17:25:29.647Z,16.24
2018-09-21T17:26:29.607Z,16.20
2018-09-21T17:27:29.590Z,16.35
2018-09-21T17:28:29.587Z,16.41
2018-09-21T17:29:29.557Z,16.41
2018-09-21T17:30:29.539Z,16.33
2018-09-21T17:31:29.553Z,16.30
2018-09-21T17:32:29.511Z,16.27
2018-09-21T17:33:29.485Z,16.38
2018-09-21T17:34:29.481Z,16.27
2018-09-21T17:35:29.453Z,16.28
2018-09-21T17:36:29.438Z,16.12
2018-09-21T17:37:29.422Z,16.23
2018-09-21T17:38:29.402Z,16.12
2018-09-21T17:39:29.394Z,16.24
2018-09-21T17:40:29.371Z,16.14
2018-09-21T17:41:29.352Z,16.23
2018-09-21T17:42:29.333Z,16.14
2018-09-21T17:43:29.318Z,16.14
2018-09-21T17:44:29.311Z,16.12
2018-09-21T17:45:29.288Z,16.04
2018-09-21T17:46:29.267Z,15.94
2018-09-21T17:47:29.250Z,16.07
2018-09-21T17:48:29.227Z,16.07
2018-09-21T17:49:29.215Z,16.04
2018-09-21T17:50:29.207Z,16.05
2018-09-21T17:51:29.180Z,15.90
2018-09-21T17:52:29.195Z,15.93
2018-09-21T17:53:29.144Z,16.02
2018-09-21T17:54:29.126Z,16.00
2018-09-21T17:55:29.135Z,16.02
2018-09-21T17:56:29.091Z,16.04
2018-09-21T17:57:29.077Z,15.92
2018-09-21T17:58:29.075Z,15.76
2018-09-21T17:59:29.052Z,15.80
2018-09-21T18:00:29.039Z,15.90
2018-09-21T18:01:29.018Z,15.97
2018-09-21T18:02:28.991Z,15.96
2018-09-21T18:03:28.998Z,15.80
2018-09-21T18:04:29.001Z,15.69
2018-09-21T18:05:28.999Z,15.68
2018-09-21T18:06:29.000Z,15.64
2018-09-21T18:07:29.011Z,15.67
2018-09-21T18:08:28.950Z,15.56
2018-09-21T18:09:28.868Z,15.56
2018-09-21T18:10:28.859Z,15.56
2018-09-21T18:11:28.845Z,15.69
2018-09-21T18:12:28.815Z,15.68
2018-09-21T18:13:28.807Z,15.67
2018-09-21T18:14:28.783Z,15.59
2018-09-21T18:15:28.764Z,15.47
2018-09-21T18:16:28.820Z,15.62
2018-09-21T18:17:28.728Z,15.62
2018-09-21T18:18:28.711Z,15.46
2018-09-21T18:19:28.696Z,15.50
2018-09-21T18:20:28.679Z,15.54
2018-09-21T18:21:28.698Z,15.44
2018-09-21T18:22:28.643Z,15.41
2018-09-21T18:23:39.655Z,15.43
2018-09-21T18:24:28.608Z,15.38
2018-09-21T18:25:28.639Z,15.38
2018-09-21T18:26:28.572Z,15.27
2018-09-21T18:27:28.565Z,15.23
2018-09-21T18:28:28.539Z,15.17
2018-09-21T18:29:28.519Z,15.17
2018-09-21T18:30:28.502Z,15.27
2018-09-21T18:31:28.504Z,15.21
2018-09-21T18:32:28.478Z,15.14
2018-09-21T18:33:28.448Z,15.09
2018-09-21T18:34:28.435Z,15.01
2018-09-21T18:35:28.415Z,14.98
2018-09-21T18:36:28.397Z,14.96
2018-09-21T18:37:28.421Z,14.95
2018-09-21T18:38:28.361Z,14.83
2018-09-21T18:39:28.348Z,14.88
2018-09-21T18:40:28.328Z,14.78
2018-09-21T18:41:28.308Z,14.70
2018-09-21T18:42:28.291Z,14.72
2018-09-21T18:43:28.284Z,14.72
2018-09-21T18:44:28.256Z,14.84
2018-09-21T18:45:28.238Z,14.81
2018-09-21T18:46:28.222Z,14.75
2018-09-21T18:47:28.205Z,14.70
2018-09-21T18:48:28.210Z,14.75
2018-09-21T18:49:28.200Z,14.69
2018-09-21T18:50:28.263Z,14.77
2018-09-21T18:51:28.180Z,14.69
2018-09-21T18:52:28.160Z,14.52
2018-09-21T18:53:28.156Z,14.60
2018-09-21T18:54:28.077Z,14.55
2018-09-21T18:55:28.059Z,14.52
2018-09-21T18:56:28.047Z,14.54
2018-09-21T18:57:28.025Z,14.55
2018-09-21T18:58:28.022Z,14.62
2018-09-21T18:59:27.990Z,14.70
2018-09-21T19:00:27.971Z,14.60
2018-09-21T19:01:27.970Z,14.70
2018-09-21T19:02:27.934Z,14.86
2018-09-21T19:03:27.919Z,14.80
2018-09-21T19:04:27.908Z,14.77
2018-09-21T19:05:27.881Z,14.86
2018-09-21T19:06:27.864Z,14.77
2018-09-21T19:07:27.847Z,14.73
2018-09-21T19:08:27.829Z,14.75
2018-09-21T19:09:27.819Z,14.88
